createdAt,value
2022-09-12T00:01:04.342Z,0.80
2022-09-12T00:03:31.887Z,0.82
2022-09-12T00:05:59.348Z,0.93
2022-09-12T00:08:26.740Z,1.02
2022-09-12T00:10:54.105Z,0.80
2022-09-12T00:13:21.528Z,0.93
2022-09-12T00:15:49.022Z,0.80
2022-09-12T00:18:17.243Z,0.90
2022-09-12T00:20:47.020Z,0.80
2022-09-12T00:23:14.948Z,0.90
2022-09-12T00:25:43.788Z,0.70
2022-09-12T00:28:12.226Z,0.77
2022-09-12T00:30:44.151Z,0.90
2022-09-12T00:33:12.285Z,1.10
2022-09-12T00:35:44.326Z,1.02
2022-09-12T00:38:13.120Z,0.90
2022-09-12T00:40:41.683Z,1.08
2022-09-12T00:43:27.991Z,0.93
2022-09-12T00:45:56.475Z,0.93
2022-09-12T00:48:37.621Z,1.00
2022-09-12T00:51:05.406Z,1.15
2022-09-12T00:53:32.910Z,1.00
2022-09-12T00:56:00.446Z,1.10
2022-09-12T00:58:48.882Z,1.20
2022-09-12T01:01:16.322Z,1.20
2022-09-12T01:03:44.403Z,0.98
2022-09-12T01:06:28.731Z,1.00
2022-09-12T01:08:59.217Z,1.08
2022-09-12T01:11:26.898Z,1.30
2022-09-12T01:13:55.149Z,1.55
2022-09-12T01:16:22.633Z,1.17
2022-09-12T01:19:15.055Z,2.20
2022-09-12T01:22:19.249Z,1.30
2022-09-12T01:25:05.658Z,1.40
2022-09-12T01:28:00.471Z,1.55
2022-09-12T01:30:39.789Z,1.63
2022-09-12T01:33:16.000Z,1.65
2022-09-12T01:36:05.910Z,2.00
2022-09-12T01:38:47.437Z,1.73
2022-09-12T01:41:38.317Z,2.00
2022-09-12T01:44:49.983Z,2.08
2022-09-12T01:47:23.051Z,2.17
2022-09-12T01:50:07.262Z,2.47
2022-09-12T01:52:49.545Z,2.17
2022-09-12T01:55:22.704Z,2.20
2022-09-12T01:57:56.501Z,2.33
2022-09-12T02:00:24.284Z,2.38
2022-09-12T02:03:10.357Z,2.17
2022-09-12T02:05:47.363Z,2.00
2022-09-12T02:08:25.926Z,2.45
2022-09-12T02:11:00.500Z,2.60
2022-09-12T02:13:51.851Z,2.60
2022-09-12T02:16:25.785Z,2.53
2022-09-12T02:19:00.591Z,2.40
2022-09-12T02:21:32.868Z,2.08
2022-09-12T02:26:35.435Z,2.20
2022-09-12T02:29:04.510Z,2.25
2022-09-12T02:31:34.825Z,2.40
2022-09-12T02:34:25.135Z,2.30
2022-09-12T02:37:16.381Z,2.63
2022-09-12T02:39:45.455Z,2.50
2022-09-12T02:42:13.810Z,2.28
2022-09-12T02:44:41.849Z,2.38
2022-09-12T02:47:15.121Z,2.33
2022-09-12T02:49:42.533Z,2.40
2022-09-12T02:52:10.139Z,2.22
2022-09-12T02:54:38.239Z,2.58
2022-09-12T02:57:19.591Z,2.30
2022-09-12T02:59:56.907Z,2.10
2022-09-12T03:02:44.539Z,2.55
2022-09-12T03:05:24.920Z,2.42
2022-09-12T03:08:18.922Z,2.50
2022-09-12T03:10:58.502Z,2.28
2022-09-12T03:14:01.791Z,2.40
2022-09-12T03:16:47.308Z,2.20
2022-09-12T03:19:29.604Z,2.22
2022-09-12T03:22:23.642Z,2.15
2022-09-12T03:25:19.226Z,2.10
2022-09-12T03:27:48.754Z,2.08
2022-09-12T03:30:16.116Z,2.50
2022-09-12T03:32:46.544Z,2.80
2022-09-12T03:35:17.989Z,2.78
2022-09-12T03:37:49.250Z,2.38
2022-09-12T03:40:16.864Z,2.33
2022-09-12T03:42:44.294Z,3.17
2022-09-12T03:45:12.064Z,2.35
2022-09-12T03:47:39.948Z,2.35
2022-09-12T03:50:07.759Z,2.90
2022-09-12T03:52:35.536Z,2.17
2022-09-12T03:55:03.005Z,2.75
2022-09-12T03:57:30.380Z,2.40
2022-09-12T03:59:57.786Z,2.35
2022-09-12T04:02:25.236Z,2.17
2022-09-12T04:04:52.766Z,2.10
2022-09-12T04:07:20.359Z,2.35
2022-09-12T04:09:47.822Z,2.60
2022-09-12T04:12:15.277Z,2.00
2022-09-12T04:14:42.802Z,2.25
2022-09-12T04:17:10.184Z,2.22
2022-09-12T04:19:38.004Z,2.20
2022-09-12T04:22:05.701Z,2.70
2022-09-12T04:24:33.145Z,2.80
2022-09-12T04:27:01.383Z,2.45
2022-09-12T04:29:31.546Z,2.45
2022-09-12T04:31:59.027Z,2.50
2022-09-12T04:34:26.495Z,2.67
2022-09-12T04:36:53.828Z,2.10
2022-09-12T04:39:21.239Z,2.30
2022-09-12T04:41:48.649Z,2.60
2022-09-12T04:44:16.668Z,2.85
2022-09-12T04:46:46.677Z,2.63
2022-09-12T04:49:16.310Z,2.20
2022-09-12T04:51:43.788Z,2.80
2022-09-12T04:54:19.763Z,2.60
2022-09-12T04:56:49.591Z,3.20
2022-09-12T04:59:19.794Z,2.90
2022-09-12T05:01:48.336Z,2.90
2022-09-12T05:04:15.949Z,2.63
2022-09-12T05:06:43.912Z,2.83
2022-09-12T05:09:12.549Z,2.90
2022-09-12T05:14:32.475Z,2.60
2022-09-12T05:17:01.544Z,2.45
2022-09-12T05:19:30.385Z,2.60
2022-09-12T05:21:58.998Z,2.40
2022-09-12T05:24:27.009Z,2.40
2022-09-12T05:26:54.492Z,2.55
2022-09-12T05:29:21.948Z,2.78
2022-09-12T05:31:52.191Z,2.63
2022-09-12T05:34:20.586Z,2.80
2022-09-12T05:36:48.295Z,3.15
2022-09-12T05:39:15.750Z,2.55
2022-09-12T05:41:43.186Z,2.60
2022-09-12T05:44:14.354Z,2.60
2022-09-12T05:46:44.877Z,2.92
2022-09-12T05:49:13.532Z,2.83
2022-09-12T05:51:44.198Z,2.90
2022-09-12T05:54:14.296Z,2.90
2022-09-12T05:56:43.352Z,2.88
2022-09-12T05:59:19.394Z,2.60
2022-09-12T06:01:47.132Z,2.60
2022-09-12T06:04:14.843Z,2.90
2022-09-12T06:06:45.223Z,2.35
2022-09-12T06:09:15.376Z,3.10
2022-09-12T06:11:43.846Z,2.30
2022-09-12T06:14:13.856Z,2.63
2022-09-12T06:16:41.820Z,2.55
2022-09-12T06:19:17.869Z,2.20
2022-09-12T06:21:47.579Z,2.38
2022-09-12T06:24:15.701Z,2.80
2022-09-12T06:26:43.780Z,2.45
2022-09-12T06:29:11.637Z,3.10
2022-09-12T06:31:41.417Z,2.83
2022-09-12T06:34:11.634Z,2.80
2022-09-12T06:36:42.127Z,3.05
2022-09-12T06:39:27.446Z,2.70
2022-09-12T06:41:54.848Z,2.80
2022-09-12T06:44:33.894Z,3.10
2022-09-12T06:47:01.233Z,2.85
2022-09-12T06:49:28.985Z,2.60
2022-09-12T06:51:56.325Z,2.63
2022-09-12T06:54:23.692Z,2.53
2022-09-12T06:56:51.045Z,3.13
2022-09-12T06:59:18.411Z,2.80
2022-09-12T07:01:45.842Z,3.00
2022-09-12T07:04:13.204Z,2.70
2022-09-12T07:06:42.166Z,2.85
2022-09-12T07:09:12.766Z,2.53
2022-09-12T07:11:41.408Z,2.58
2022-09-12T07:14:11.318Z,2.90
2022-09-12T07:16:38.823Z,2.72
2022-09-12T07:19:08.377Z,2.60
2022-09-12T07:21:39.853Z,2.80
2022-09-12T07:24:10.189Z,3.22
2022-09-12T07:26:40.192Z,3.70
2022-09-12T07:31:56.948Z,3.42
2022-09-12T07:34:24.317Z,3.25
2022-09-12T07:36:51.698Z,2.83
2022-09-12T07:39:19.222Z,3.70
2022-09-12T07:41:46.643Z,3.08
2022-09-12T07:44:14.070Z,2.65
2022-09-12T07:46:41.549Z,2.90
2022-09-12T07:49:09.353Z,2.47
2022-09-12T07:51:37.378Z,2.63
2022-09-12T07:54:09.350Z,3.20
2022-09-12T07:56:39.083Z,3.15
2022-09-12T07:59:08.115Z,3.05
2022-09-12T08:01:36.065Z,2.20
2022-09-12T08:04:05.132Z,2.28
2022-09-12T08:06:36.079Z,2.90
2022-09-12T08:09:04.828Z,2.80
2022-09-12T08:11:32.280Z,2.53
2022-09-12T08:14:01.810Z,2.65
2022-09-12T08:16:31.628Z,2.97
2022-09-12T08:19:01.393Z,4.10
2022-09-12T08:21:31.686Z,2.55
2022-09-12T08:24:06.370Z,3.35
2022-09-12T08:26:34.787Z,3.05
2022-09-12T08:29:02.454Z,4.10
2022-09-12T08:31:36.417Z,2.80
2022-09-12T08:34:08.052Z,2.38
2022-09-12T08:36:35.942Z,2.40
2022-09-12T08:39:06.683Z,3.42
2022-09-12T08:41:43.755Z,2.45
2022-09-12T08:44:53.502Z,2.30
2022-09-12T08:47:27.235Z,2.90
2022-09-12T08:50:10.932Z,2.00
2022-09-12T08:52:59.210Z,2.55
2022-09-12T08:55:39.886Z,1.77
2022-09-12T08:58:20.236Z,1.70
2022-09-12T09:01:08.003Z,1.60
2022-09-12T09:04:06.499Z,2.42
2022-09-12T09:07:04.705Z,1.85
2022-09-12T09:09:39.614Z,1.40
2022-09-12T09:12:47.281Z,1.92
2022-09-12T09:15:33.258Z,2.40
2022-09-12T09:18:04.300Z,2.00
2022-09-12T09:20:48.074Z,2.13
2022-09-12T09:23:35.493Z,1.90
2022-09-12T09:26:14.683Z,1.05
2022-09-12T09:28:53.220Z,1.10
2022-09-12T09:31:22.879Z,1.77
2022-09-12T09:33:54.023Z,1.73
2022-09-12T09:36:25.525Z,1.67
2022-09-12T09:39:09.665Z,1.67
2022-09-12T09:41:39.803Z,1.55
2022-09-12T09:46:35.730Z,1.30
2022-09-12T09:49:04.424Z,1.83
2022-09-12T09:51:37.622Z,1.48
2022-09-12T09:54:17.384Z,3.25
2022-09-12T09:56:45.048Z,1.70
2022-09-12T09:59:18.625Z,1.02
2022-09-12T10:01:48.093Z,1.50
2022-09-12T10:04:39.203Z,1.00
2022-09-12T10:07:19.330Z,0.90
2022-09-12T10:10:17.303Z,1.02
2022-09-12T10:12:45.121Z,1.00
2022-09-12T10:15:26.579Z,1.48
2022-09-12T10:17:57.113Z,1.00
2022-09-12T10:20:44.672Z,1.00
2022-09-12T10:23:35.206Z,1.00
2022-09-12T10:26:06.198Z,1.40
2022-09-12T10:28:39.837Z,1.45
2022-09-12T10:31:10.193Z,2.05
2022-09-12T10:33:53.203Z,1.75
2022-09-12T10:36:20.854Z,1.30
2022-09-12T10:38:55.703Z,1.70
2022-09-12T10:41:23.891Z,1.30
2022-09-12T10:43:51.594Z,1.00
2022-09-12T10:46:19.321Z,0.80
2022-09-12T10:48:49.044Z,0.80
2022-09-12T10:51:25.371Z,0.98
2022-09-12T10:53:59.299Z,1.08
2022-09-12T10:56:33.636Z,1.02
2022-09-12T10:59:20.257Z,1.10
2022-09-12T11:02:16.721Z,1.73
2022-09-12T11:04:52.913Z,1.15
2022-09-12T11:07:35.497Z,1.02
2022-09-12T11:10:24.150Z,1.58
2022-09-12T11:13:24.912Z,1.33
2022-09-12T11:16:11.037Z,1.13
2022-09-12T11:19:03.877Z,1.20
2022-09-12T11:21:40.244Z,1.50
2022-09-12T11:24:35.617Z,1.50
2022-09-12T11:27:14.854Z,1.38
2022-09-12T11:29:58.078Z,1.77
2022-09-12T11:32:46.271Z,1.73
2022-09-12T11:35:17.552Z,1.50
2022-09-12T11:38:00.456Z,1.77
2022-09-12T11:40:40.263Z,1.40
2022-09-12T11:43:23.802Z,1.60
2022-09-12T11:45:52.590Z,1.60
2022-09-12T11:48:45.682Z,1.50
2022-09-12T11:51:24.526Z,1.90
2022-09-12T11:54:03.478Z,1.90
2022-09-12T11:56:30.844Z,1.70
2022-09-12T11:59:05.215Z,1.65
2022-09-12T12:01:43.850Z,2.05
2022-09-12T12:04:20.930Z,2.40
2022-09-12T12:07:10.564Z,2.10
2022-09-12T12:09:52.315Z,1.40
2022-09-12T12:12:25.537Z,1.33
2022-09-12T12:14:55.924Z,1.35
2022-09-12T12:17:25.120Z,1.55
2022-09-12T12:20:08.178Z,1.55
2022-09-12T12:22:36.409Z,1.42
2022-09-12T12:25:29.860Z,1.50
2022-09-12T12:28:01.794Z,2.00
2022-09-12T12:30:33.477Z,1.50
2022-09-12T12:33:02.483Z,1.48
2022-09-12T12:35:35.866Z,1.70
2022-09-12T12:38:05.791Z,1.60
2022-09-12T12:40:33.357Z,1.40
2022-09-12T12:43:03.569Z,1.50
2022-09-12T12:45:30.905Z,1.50
2022-09-12T12:48:03.973Z,1.70
2022-09-12T12:50:34.263Z,1.50
2022-09-12T12:53:17.878Z,1.23
2022-09-12T12:55:45.407Z,1.65
2022-09-12T12:58:38.257Z,1.40
2022-09-12T13:01:14.233Z,1.40
2022-09-12T13:03:47.770Z,1.45
2022-09-12T13:06:40.377Z,1.23
2022-09-12T13:12:04.078Z,1.67
2022-09-12T13:14:34.538Z,1.60
2022-09-12T13:17:06.338Z,1.52
2022-09-12T13:19:37.945Z,1.42
2022-09-12T13:22:06.770Z,1.70
2022-09-12T13:24:42.096Z,1.75
2022-09-12T13:27:24.125Z,1.40
2022-09-12T13:30:13.837Z,1.85
2022-09-12T13:32:43.193Z,1.80
2022-09-12T13:35:19.281Z,1.83
2022-09-12T13:37:59.731Z,1.70
2022-09-12T13:40:33.719Z,1.90
2022-09-12T13:43:20.874Z,1.80
2022-09-12T13:45:48.634Z,2.22
2022-09-12T13:48:24.140Z,2.20
2022-09-12T13:50:55.142Z,2.22
2022-09-12T13:53:25.903Z,1.80
2022-09-12T13:56:00.135Z,2.22
2022-09-12T13:58:30.814Z,1.63
2022-09-12T14:01:12.602Z,1.90
2022-09-12T14:04:14.190Z,1.88
2022-09-12T14:06:49.986Z,1.77
2022-09-12T14:09:25.346Z,2.00
2022-09-12T14:11:53.735Z,1.98
2022-09-12T14:14:32.835Z,2.13
2022-09-12T14:17:00.725Z,1.80
2022-09-12T14:19:29.261Z,1.92
2022-09-12T14:21:57.716Z,2.30
2022-09-12T14:24:26.015Z,2.15
2022-09-12T14:26:56.832Z,2.63
2022-09-12T14:29:25.285Z,2.00
2022-09-12T14:32:04.858Z,1.70
2022-09-12T14:34:32.282Z,2.10
2022-09-12T14:36:59.939Z,2.00
2022-09-12T14:39:44.882Z,1.88
2022-09-12T14:42:21.348Z,1.65
2022-09-12T14:45:01.724Z,1.75
2022-09-12T14:47:37.742Z,2.10
2022-09-12T14:50:14.393Z,1.83
2022-09-12T14:52:43.613Z,1.73
2022-09-12T14:55:23.867Z,2.00
2022-09-12T14:58:19.874Z,1.60
2022-09-12T15:01:02.427Z,1.98
2022-09-12T15:03:31.099Z,1.60
2022-09-12T15:05:59.917Z,1.60
2022-09-12T15:08:27.404Z,2.20
2022-09-12T15:10:55.202Z,2.00
2022-09-12T15:13:26.282Z,2.60
2022-09-12T15:15:55.937Z,1.90
2022-09-12T15:18:25.940Z,1.88
2022-09-12T15:21:01.718Z,2.00
2022-09-12T15:23:43.019Z,1.70
2022-09-12T15:26:13.264Z,2.10
2022-09-12T15:28:41.065Z,1.70
2022-09-12T15:31:17.436Z,1.83
2022-09-12T15:33:45.040Z,1.67
2022-09-12T15:36:18.735Z,1.80
2022-09-12T15:38:47.353Z,1.90
2022-09-12T15:41:23.511Z,1.63
2022-09-12T15:43:51.214Z,1.85
2022-09-12T15:46:19.377Z,1.60
2022-09-12T15:48:47.217Z,1.65
2022-09-12T15:51:19.555Z,1.77
2022-09-12T15:53:48.374Z,1.70
2022-09-12T15:56:21.364Z,2.05
2022-09-12T15:58:58.769Z,1.65
2022-09-12T16:01:28.532Z,1.88
2022-09-12T16:03:56.284Z,1.40
2022-09-12T16:06:23.682Z,1.92
2022-09-12T16:08:51.097Z,1.77
2022-09-12T16:11:21.821Z,1.70
2022-09-12T16:13:49.716Z,1.77
2022-09-12T16:16:17.129Z,1.77
2022-09-12T16:18:44.539Z,1.83
2022-09-12T16:21:15.248Z,1.88
2022-09-12T16:23:47.068Z,1.50
2022-09-12T16:26:14.996Z,1.75
2022-09-12T16:28:43.200Z,1.85
2022-09-12T16:31:13.827Z,1.92
2022-09-12T16:33:41.538Z,1.55
2022-09-12T16:36:14.306Z,1.83
2022-09-12T16:38:43.064Z,1.52
2022-09-12T16:41:11.092Z,1.55
2022-09-12T16:43:39.416Z,1.70
2022-09-12T16:46:13.009Z,1.63
2022-09-12T16:48:49.575Z,2.15
2022-09-12T16:51:21.372Z,1.70
2022-09-12T16:53:49.113Z,1.75
2022-09-12T16:56:17.023Z,1.77
2022-09-12T16:58:44.951Z,2.50
2022-09-12T17:01:18.320Z,2.10
2022-09-12T17:03:45.921Z,1.65
2022-09-12T17:06:16.712Z,2.00
2022-09-12T17:08:50.070Z,1.90
2022-09-12T17:11:34.981Z,1.50
2022-09-12T17:14:06.933Z,2.60
2022-09-12T17:19:04.532Z,2.40
2022-09-12T17:21:31.925Z,1.80
2022-09-12T17:23:59.337Z,2.28
2022-09-12T17:26:26.819Z,1.90
2022-09-12T17:28:54.211Z,2.15
2022-09-12T17:31:21.636Z,2.22
2022-09-12T17:33:49.171Z,2.10
2022-09-12T17:36:18.117Z,1.70
2022-09-12T17:38:46.447Z,2.28
2022-09-12T17:41:19.404Z,2.38
2022-09-12T17:43:56.544Z,2.60
2022-09-12T17:46:36.116Z,2.20
2022-09-12T17:49:06.905Z,2.50
2022-09-12T17:51:35.167Z,2.50
2022-09-12T17:54:10.439Z,3.28
2022-09-12T17:56:39.076Z,2.63
2022-09-12T17:59:08.093Z,2.78
2022-09-12T18:01:54.129Z,2.72
2022-09-12T18:04:21.497Z,2.88
2022-09-12T18:06:49.200Z,2.80
2022-09-12T18:09:22.677Z,2.60
2022-09-12T18:11:50.593Z,2.83
2022-09-12T18:14:19.100Z,2.65
2022-09-12T18:16:48.114Z,2.55
2022-09-12T18:19:16.040Z,3.03
2022-09-12T18:21:43.466Z,2.80
2022-09-12T18:24:11.411Z,3.60
2022-09-12T18:26:38.862Z,4.00
2022-09-12T18:29:06.830Z,3.63
2022-09-12T18:31:34.496Z,3.60
2022-09-12T18:34:02.576Z,3.75
2022-09-12T18:36:30.835Z,3.45
2022-09-12T18:38:59.425Z,3.13
2022-09-12T18:41:29.011Z,3.40
2022-09-12T18:43:57.973Z,3.00
2022-09-12T18:46:26.329Z,5.00
2022-09-12T18:48:57.690Z,3.58
2022-09-12T18:51:31.310Z,3.30
2022-09-12T18:54:01.011Z,4.07
2022-09-12T18:56:33.093Z,3.22
2022-09-12T18:59:02.081Z,3.60
2022-09-12T19:01:32.349Z,3.22
2022-09-12T19:04:01.136Z,3.13
2022-09-12T19:06:31.176Z,2.78
2022-09-12T19:09:01.709Z,3.25
2022-09-12T19:11:31.279Z,3.50
2022-09-12T19:13:58.732Z,3.50
2022-09-12T19:16:27.934Z,3.30
2022-09-12T19:18:56.358Z,3.50
2022-09-12T19:21:27.000Z,2.95
2022-09-12T19:23:58.089Z,3.38
2022-09-12T19:26:26.247Z,3.13
2022-09-12T19:28:54.709Z,2.85
2022-09-12T19:31:23.399Z,3.40
2022-09-12T19:33:52.425Z,3.42
2022-09-12T19:36:43.787Z,3.00
2022-09-12T19:39:09.659Z,3.72
2022-09-12T19:41:37.240Z,2.85
2022-09-12T19:44:05.176Z,3.40
2022-09-12T19:46:32.799Z,2.83
2022-09-12T19:49:00.283Z,3.17
2022-09-12T19:51:27.595Z,3.40
2022-09-12T19:53:55.087Z,2.85
2022-09-12T19:56:22.538Z,3.30
2022-09-12T19:58:55.754Z,3.88
2022-09-12T20:01:30.600Z,3.08
2022-09-12T20:03:58.925Z,3.20
2022-09-12T20:06:27.448Z,3.38
2022-09-12T20:08:55.536Z,3.92
2022-09-12T20:11:24.160Z,4.28
2022-09-12T20:13:52.059Z,3.92
2022-09-12T20:16:25.740Z,3.90
2022-09-12T20:18:58.325Z,3.42
2022-09-12T20:21:31.638Z,3.90
2022-09-12T20:24:01.361Z,4.13
2022-09-12T20:26:28.772Z,4.10
2022-09-12T20:28:56.253Z,4.50
2022-09-12T20:31:24.581Z,4.00
2022-09-12T20:33:52.278Z,3.78
2022-09-12T20:36:21.597Z,4.45
2022-09-12T20:38:56.931Z,3.88
2022-09-12T20:41:25.562Z,3.78
2022-09-12T20:43:54.183Z,3.65
2022-09-12T20:46:22.860Z,3.40
2022-09-12T20:48:51.068Z,3.08
2022-09-12T20:51:19.859Z,3.53
2022-09-12T20:53:47.832Z,2.38
2022-09-12T20:56:15.518Z,2.70
2022-09-12T20:58:44.303Z,2.60
2022-09-12T21:01:13.695Z,2.38
2022-09-12T21:03:42.900Z,2.33
2022-09-12T21:06:12.593Z,2.17
2022-09-12T21:08:40.197Z,2.17
2022-09-12T21:11:07.756Z,2.45
2022-09-12T21:13:36.225Z,2.00
2022-09-12T21:16:07.833Z,1.80
2022-09-12T21:18:36.403Z,2.03
2022-09-12T21:21:05.356Z,1.90
2022-09-12T21:23:33.552Z,1.92
2022-09-12T21:26:02.001Z,8.60
2022-09-12T21:28:30.077Z,1.80
2022-09-12T21:30:57.673Z,1.70
2022-09-12T21:33:25.073Z,1.80
2022-09-12T21:35:52.511Z,1.83
2022-09-12T21:38:20.553Z,1.55
2022-09-12T21:40:48.105Z,1.50
2022-09-12T21:43:15.667Z,1.58
2022-09-12T21:45:43.084Z,1.70
2022-09-12T21:48:10.456Z,1.70
2022-09-12T21:50:37.901Z,1.60
2022-09-12T21:53:05.314Z,2.05
2022-09-12T21:55:33.033Z,1.73
2022-09-12T21:58:00.400Z,1.75
2022-09-12T22:00:27.902Z,1.50
2022-09-12T22:02:56.229Z,1.60
2022-09-12T22:05:24.639Z,1.70
2022-09-12T22:07:52.618Z,1.48
2022-09-12T22:10:20.007Z,1.55
2022-09-12T22:12:47.767Z,1.50
2022-09-12T22:15:39.455Z,1.60
2022-09-12T22:18:02.880Z,1.48
2022-09-12T22:20:30.272Z,1.20
2022-09-12T22:23:16.435Z,1.35
2022-09-12T22:25:43.978Z,1.25
2022-09-12T22:28:11.429Z,1.60
2022-09-12T22:30:38.865Z,1.80
2022-09-12T22:33:06.348Z,1.77
2022-09-12T22:35:33.727Z,1.55
2022-09-12T22:38:01.061Z,1.70
2022-09-12T22:40:28.435Z,1.77
2022-09-12T22:42:55.738Z,1.60
2022-09-12T22:45:23.056Z,1.80
2022-09-12T22:47:50.406Z,1.77
2022-09-12T22:50:17.754Z,1.75
2022-09-12T22:52:45.094Z,2.15
2022-09-12T22:55:12.519Z,1.92
2022-09-12T22:57:39.949Z,1.60
2022-09-12T23:00:10.619Z,1.80
2022-09-12T23:02:38.147Z,1.92
2022-09-12T23:05:06.192Z,1.80
2022-09-12T23:07:33.638Z,1.63
2022-09-12T23:10:01.015Z,1.70
2022-09-12T23:12:28.371Z,2.05
2022-09-12T23:14:55.712Z,2.30
2022-09-12T23:17:23.097Z,2.10
2022-09-12T23:19:50.476Z,2.10
2022-09-12T23:22:18.082Z,1.88
2022-09-12T23:24:45.860Z,2.00
2022-09-12T23:27:13.202Z,1.80
2022-09-12T23:29:40.572Z,1.75
2022-09-12T23:32:08.029Z,2.22
2022-09-12T23:34:35.418Z,1.83
2022-09-12T23:37:03.274Z,2.00
2022-09-12T23:39:31.361Z,2.10
2022-09-12T23:41:58.723Z,2.00
2022-09-12T23:44:26.248Z,2.10
2022-09-12T23:46:53.586Z,1.98
2022-09-12T23:49:21.061Z,2.40
2022-09-12T23:51:48.413Z,2.20
2022-09-12T23:54:15.852Z,2.00
2022-09-12T23:56:43.297Z,1.98
2022-09-12T23:59:10.654Z,2.38
